sensor_id;sensor_type;location;lat;lon;timestamp;temperature;humidity
2873;DHT22;1444;49.166;7.312;2022-07-17T00:00:18;17.80;73.00
2873;DHT22;1444;49.166;7.312;2022-07-17T00:02:45;17.60;72.60
2873;DHT22;1444;49.166;7.312;2022-07-17T00:05:15;17.50;73.30
2873;DHT22;1444;49.166;7.312;2022-07-17T00:07:41;17.50;73.90
2873;DHT22;1444;49.166;7.312;2022-07-17T00:10:08;17.30;73.60
2873;DHT22;1444;49.166;7.312;2022-07-17T00:12:35;17.30;73.60
2873;DHT22;1444;49.166;7.312;2022-07-17T00:15:03;17.30;73.80
2873;DHT22;1444;49.166;7.312;2022-07-17T00:17:30;17.30;72.80
2873;DHT22;1444;49.166;7.312;2022-07-17T00:19:56;17.20;73.80
2873;DHT22;1444;49.166;7.312;2022-07-17T00:22:24;17.10;74.10
2873;DHT22;1444;49.166;7.312;2022-07-17T00:24:53;17.00;74.00
2873;DHT22;1444;49.166;7.312;2022-07-17T00:27:19;17.00;74.50
2873;DHT22;1444;49.166;7.312;2022-07-17T00:29:46;16.90;73.60
2873;DHT22;1444;49.166;7.312;2022-07-17T00:32:13;16.80;73.90
2873;DHT22;1444;49.166;7.312;2022-07-17T00:34:39;16.80;74.60
2873;DHT22;1444;49.166;7.312;2022-07-17T00:37:06;16.80;74.30
2873;DHT22;1444;49.166;7.312;2022-07-17T00:39:34;16.70;74.70
2873;DHT22;1444;49.166;7.312;2022-07-17T00:42:01;16.50;75.10
2873;DHT22;1444;49.166;7.312;2022-07-17T00:44:28;16.50;75.70
2873;DHT22;1444;49.166;7.312;2022-07-17T00:46:55;16.40;75.10
2873;DHT22;1444;49.166;7.312;2022-07-17T00:49:21;16.30;75.80
2873;DHT22;1444;49.166;7.312;2022-07-17T00:51:48;16.00;77.20
2873;DHT22;1444;49.166;7.312;2022-07-17T00:54:15;15.90;77.20
2873;DHT22;1444;49.166;7.312;2022-07-17T00:56:46;15.80;77.20
2873;DHT22;1444;49.166;7.312;2022-07-17T00:59:14;15.70;76.90
2873;DHT22;1444;49.166;7.312;2022-07-17T01:01:41;15.60;76.70
2873;DHT22;1444;49.166;7.312;2022-07-17T01:04:08;15.60;77.20
2873;DHT22;1444;49.166;7.312;2022-07-17T01:06:35;15.70;77.70
2873;DHT22;1444;49.166;7.312;2022-07-17T01:09:02;15.70;77.70
2873;DHT22;1444;49.166;7.312;2022-07-17T01:11:29;15.70;78.30
2873;DHT22;1444;49.166;7.312;2022-07-17T01:13:57;15.80;77.40
2873;DHT22;1444;49.166;7.312;2022-07-17T01:16:24;15.80;77.60
2873;DHT22;1444;49.166;7.312;2022-07-17T01:18:51;15.80;77.20
2873;DHT22;1444;49.166;7.312;2022-07-17T01:21:20;15.80;76.90
2873;DHT22;1444;49.166;7.312;2022-07-17T01:23:47;15.70;76.90
2873;DHT22;1444;49.166;7.312;2022-07-17T01:26:13;15.60;76.10
2873;DHT22;1444;49.166;7.312;2022-07-17T01:28:40;15.60;76.10
2873;DHT22;1444;49.166;7.312;2022-07-17T01:31:07;15.50;76.20
2873;DHT22;1444;49.166;7.312;2022-07-17T01:33:34;15.50;77.40
2873;DHT22;1444;49.166;7.312;2022-07-17T01:36:00;15.40;77.90
2873;DHT22;1444;49.166;7.312;2022-07-17T01:38:28;15.40;78.50
2873;DHT22;1444;49.166;7.312;2022-07-17T01:40:55;15.40;77.30
2873;DHT22;1444;49.166;7.312;2022-07-17T01:43:22;15.40;77.70
2873;DHT22;1444;49.166;7.312;2022-07-17T01:45:48;15.40;77.70
2873;DHT22;1444;49.166;7.312;2022-07-17T01:48:26;15.30;77.10
2873;DHT22;1444;49.166;7.312;2022-07-17T01:50:53;15.30;78.00
2873;DHT22;1444;49.166;7.312;2022-07-17T01:53:20;15.20;78.40
2873;DHT22;1444;49.166;7.312;2022-07-17T01:55:48;15.20;78.40
2873;DHT22;1444;49.166;7.312;2022-07-17T01:58:15;15.20;78.10
2873;DHT22;1444;49.166;7.312;2022-07-17T02:00:42;15.20;78.60
2873;DHT22;1444;49.166;7.312;2022-07-17T02:03:09;15.10;76.70
2873;DHT22;1444;49.166;7.312;2022-07-17T02:05:36;15.10;76.40
2873;DHT22;1444;49.166;7.312;2022-07-17T02:08:03;15.00;75.80
2873;DHT22;1444;49.166;7.312;2022-07-17T02:10:30;15.00;76.70
2873;DHT22;1444;49.166;7.312;2022-07-17T02:12:58;14.80;77.70
2873;DHT22;1444;49.166;7.312;2022-07-17T02:15:25;14.60;78.00
2873;DHT22;1444;49.166;7.312;2022-07-17T02:17:51;14.50;78.10
2873;DHT22;1444;49.166;7.312;2022-07-17T02:20:18;14.30;78.40
2873;DHT22;1444;49.166;7.312;2022-07-17T02:22:45;14.30;79.00
2873;DHT22;1444;49.166;7.312;2022-07-17T02:25:13;14.30;79.80
2873;DHT22;1444;49.166;7.312;2022-07-17T02:27:41;14.20;79.00
2873;DHT22;1444;49.166;7.312;2022-07-17T02:30:12;14.20;79.00
2873;DHT22;1444;49.166;7.312;2022-07-17T02:32:39;14.20;79.60
2873;DHT22;1444;49.166;7.312;2022-07-17T02:35:07;14.10;79.20
2873;DHT22;1444;49.166;7.312;2022-07-17T02:37:35;14.00;78.80
2873;DHT22;1444;49.166;7.312;2022-07-17T02:40:02;13.90;78.20
2873;DHT22;1444;49.166;7.312;2022-07-17T02:42:30;13.90;79.20
2873;DHT22;1444;49.166;7.312;2022-07-17T02:44:58;13.90;79.30
2873;DHT22;1444;49.166;7.312;2022-07-17T02:47:28;13.90;79.80
2873;DHT22;1444;49.166;7.312;2022-07-17T02:49:55;13.80;79.70
2873;DHT22;1444;49.166;7.312;2022-07-17T02:52:22;13.90;78.60
2873;DHT22;1444;49.166;7.312;2022-07-17T02:54:49;13.90;78.90
2873;DHT22;1444;49.166;7.312;2022-07-17T02:57:16;13.90;79.20
2873;DHT22;1444;49.166;7.312;2022-07-17T02:59:44;13.90;78.60
2873;DHT22;1444;49.166;7.312;2022-07-17T03:02:11;13.90;78.90
2873;DHT22;1444;49.166;7.312;2022-07-17T03:04:39;13.90;79.40
2873;DHT22;1444;49.166;7.312;2022-07-17T03:07:05;13.80;78.90
2873;DHT22;1444;49.166;7.312;2022-07-17T03:09:32;13.70;79.00
2873;DHT22;1444;49.166;7.312;2022-07-17T03:11:59;13.60;78.90
2873;DHT22;1444;49.166;7.312;2022-07-17T03:14:26;13.60;79.50
2873;DHT22;1444;49.166;7.312;2022-07-17T03:16:52;13.50;79.30
2873;DHT22;1444;49.166;7.312;2022-07-17T03:19:19;13.40;80.30
2873;DHT22;1444;49.166;7.312;2022-07-17T03:21:47;13.30;79.20
2873;DHT22;1444;49.166;7.312;2022-07-17T03:24:14;13.30;79.80
2873;DHT22;1444;49.166;7.312;2022-07-17T03:26:41;13.30;79.00
2873;DHT22;1444;49.166;7.312;2022-07-17T03:29:07;13.30;80.10
2873;DHT22;1444;49.166;7.312;2022-07-17T03:31:34;13.30;78.90
2873;DHT22;1444;49.166;7.312;2022-07-17T03:34:01;13.30;79.40
2873;DHT22;1444;49.166;7.312;2022-07-17T03:36:28;13.30;80.40
2873;DHT22;1444;49.166;7.312;2022-07-17T03:38:56;13.30;80.40
2873;DHT22;1444;49.166;7.312;2022-07-17T03:41:22;13.30;80.60
2873;DHT22;1444;49.166;7.312;2022-07-17T03:43:49;13.30;81.50
2873;DHT22;1444;49.166;7.312;2022-07-17T03:46:16;13.30;81.80
2873;DHT22;1444;49.166;7.312;2022-07-17T03:48:42;13.40;82.30
2873;DHT22;1444;49.166;7.312;2022-07-17T03:51:09;13.40;82.30
2873;DHT22;1444;49.166;7.312;2022-07-17T03:53:36;13.40;81.90
2873;DHT22;1444;49.166;7.312;2022-07-17T03:56:04;13.40;82.00
2873;DHT22;1444;49.166;7.312;2022-07-17T03:58:31;13.50;82.10
2873;DHT22;1444;49.166;7.312;2022-07-17T04:00:58;13.50;81.80
2873;DHT22;1444;49.166;7.312;2022-07-17T04:03:25;13.50;81.80
2873;DHT22;1444;49.166;7.312;2022-07-17T04:05:52;13.50;81.70
2873;DHT22;1444;49.166;7.312;2022-07-17T04:08:19;13.50;80.60
2873;DHT22;1444;49.166;7.312;2022-07-17T04:10:46;13.50;80.10
2873;DHT22;1444;49.166;7.312;2022-07-17T04:13:14;13.40;80.10
2873;DHT22;1444;49.166;7.312;2022-07-17T04:15:40;13.40;80.70
2873;DHT22;1444;49.166;7.312;2022-07-17T04:18:19;13.40;81.60
2873;DHT22;1444;49.166;7.312;2022-07-17T04:20:47;13.40;82.20
2873;DHT22;1444;49.166;7.312;2022-07-17T04:23:14;13.20;80.00
2873;DHT22;1444;49.166;7.312;2022-07-17T04:25:43;13.10;80.30
2873;DHT22;1444;49.166;7.312;2022-07-17T04:28:10;13.10;80.70
2873;DHT22;1444;49.166;7.312;2022-07-17T04:30:39;13.10;80.90
2873;DHT22;1444;49.166;7.312;2022-07-17T04:33:06;13.10;81.70
2873;DHT22;1444;49.166;7.312;2022-07-17T04:35:33;13.20;81.40
2873;DHT22;1444;49.166;7.312;2022-07-17T04:38:01;13.10;80.80
2873;DHT22;1444;49.166;7.312;2022-07-17T04:40:28;13.20;81.20
2873;DHT22;1444;49.166;7.312;2022-07-17T04:42:54;13.20;81.70
2873;DHT22;1444;49.166;7.312;2022-07-17T04:45:21;13.30;82.50
2873;DHT22;1444;49.166;7.312;2022-07-17T04:47:49;13.30;83.00
2873;DHT22;1444;49.166;7.312;2022-07-17T04:50:16;13.40;81.50
2873;DHT22;1444;49.166;7.312;2022-07-17T04:52:43;13.50;81.60
2873;DHT22;1444;49.166;7.312;2022-07-17T04:55:09;13.70;81.80
2873;DHT22;1444;49.166;7.312;2022-07-17T04:57:36;13.80;81.80
2873;DHT22;1444;49.166;7.312;2022-07-17T05:00:04;13.90;81.90
2873;DHT22;1444;49.166;7.312;2022-07-17T05:02:31;14.10;82.50
2873;DHT22;1444;49.166;7.312;2022-07-17T05:04:59;14.20;83.40
2873;DHT22;1444;49.166;7.312;2022-07-17T05:07:26;14.30;83.50
2873;DHT22;1444;49.166;7.312;2022-07-17T05:09:52;14.50;83.10
2873;DHT22;1444;49.166;7.312;2022-07-17T05:12:19;14.60;82.50
2873;DHT22;1444;49.166;7.312;2022-07-17T05:14:46;14.80;82.70
2873;DHT22;1444;49.166;7.312;2022-07-17T05:17:13;14.90;82.40
2873;DHT22;1444;49.166;7.312;2022-07-17T05:19:40;15.00;82.50
2873;DHT22;1444;49.166;7.312;2022-07-17T05:22:08;15.00;82.40
2873;DHT22;1444;49.166;7.312;2022-07-17T05:24:35;15.10;82.40
2873;DHT22;1444;49.166;7.312;2022-07-17T05:27:02;15.20;82.10
2873;DHT22;1444;49.166;7.312;2022-07-17T05:29:29;15.20;82.70
2873;DHT22;1444;49.166;7.312;2022-07-17T05:31:55;15.30;82.80
2873;DHT22;1444;49.166;7.312;2022-07-17T05:34:22;15.50;82.50
2873;DHT22;1444;49.166;7.312;2022-07-17T05:36:49;15.70;81.90
2873;DHT22;1444;49.166;7.312;2022-07-17T05:39:17;15.80;81.70
2873;DHT22;1444;49.166;7.312;2022-07-17T05:41:43;15.80;82.30
2873;DHT22;1444;49.166;7.312;2022-07-17T05:44:10;16.00;81.50
2873;DHT22;1444;49.166;7.312;2022-07-17T05:46:37;16.20;80.50
2873;DHT22;1444;49.166;7.312;2022-07-17T05:49:04;16.20;80.30
2873;DHT22;1444;49.166;7.312;2022-07-17T05:51:30;16.40;79.10
2873;DHT22;1444;49.166;7.312;2022-07-17T05:53:57;16.60;78.40
2873;DHT22;1444;49.166;7.312;2022-07-17T05:56:25;16.80;78.50
2873;DHT22;1444;49.166;7.312;2022-07-17T05:58:52;16.80;79.10
2873;DHT22;1444;49.166;7.312;2022-07-17T06:01:18;17.00;77.80
2873;DHT22;1444;49.166;7.312;2022-07-17T06:03:45;17.20;77.90
2873;DHT22;1444;49.166;7.312;2022-07-17T06:06:12;17.40;76.30
2873;DHT22;1444;49.166;7.312;2022-07-17T06:08:38;17.60;76.00
2873;DHT22;1444;49.166;7.312;2022-07-17T06:11:06;17.80;75.30
2873;DHT22;1444;49.166;7.312;2022-07-17T06:13:34;17.90;75.10
2873;DHT22;1444;49.166;7.312;2022-07-17T06:16:01;18.00;75.30
2873;DHT22;1444;49.166;7.312;2022-07-17T06:18:28;18.50;73.60
2873;DHT22;1444;49.166;7.312;2022-07-17T06:20:55;18.70;73.30
2873;DHT22;1444;49.166;7.312;2022-07-17T06:23:22;18.80;72.40
2873;DHT22;1444;49.166;7.312;2022-07-17T06:25:48;19.00;72.30
2873;DHT22;1444;49.166;7.312;2022-07-17T06:28:15;19.40;71.20
2873;DHT22;1444;49.166;7.312;2022-07-17T06:30:43;19.50;70.70
2873;DHT22;1444;49.166;7.312;2022-07-17T06:33:10;19.60;71.30
2873;DHT22;1444;49.166;7.312;2022-07-17T06:35:37;19.90;70.30
2873;DHT22;1444;49.166;7.312;2022-07-17T06:38:04;20.00;70.30
2873;DHT22;1444;49.166;7.312;2022-07-17T06:40:31;20.30;68.30
2873;DHT22;1444;49.166;7.312;2022-07-17T06:42:57;20.30;67.80
2873;DHT22;1444;49.166;7.312;2022-07-17T06:45:24;20.50;69.10
2873;DHT22;1444;49.166;7.312;2022-07-17T06:47:52;20.70;67.50
2873;DHT22;1444;49.166;7.312;2022-07-17T06:50:19;21.00;67.60
2873;DHT22;1444;49.166;7.312;2022-07-17T06:52:46;21.00;68.00
2873;DHT22;1444;49.166;7.312;2022-07-17T06:55:13;21.30;67.20
2873;DHT22;1444;49.166;7.312;2022-07-17T06:57:39;21.40;65.80
2873;DHT22;1444;49.166;7.312;2022-07-17T07:00:07;21.40;66.20
2873;DHT22;1444;49.166;7.312;2022-07-17T07:02:35;21.70;65.70
2873;DHT22;1444;49.166;7.312;2022-07-17T07:05:03;21.70;66.30
2873;DHT22;1444;49.166;7.312;2022-07-17T07:07:30;21.90;66.20
2873;DHT22;1444;49.166;7.312;2022-07-17T07:09:57;22.30;64.70
2873;DHT22;1444;49.166;7.312;2022-07-17T07:12:24;22.30;65.30
2873;DHT22;1444;49.166;7.312;2022-07-17T07:14:51;22.60;64.00
2873;DHT22;1444;49.166;7.312;2022-07-17T07:17:17;22.90;63.40
2873;DHT22;1444;49.166;7.312;2022-07-17T07:19:45;23.20;63.10
2873;DHT22;1444;49.166;7.312;2022-07-17T07:22:13;23.30;62.70
2873;DHT22;1444;49.166;7.312;2022-07-17T07:24:39;23.60;62.20
2873;DHT22;1444;49.166;7.312;2022-07-17T07:27:06;23.60;62.50
2873;DHT22;1444;49.166;7.312;2022-07-17T07:29:33;23.80;61.50
2873;DHT22;1444;49.166;7.312;2022-07-17T07:31:59;24.00;62.10
2873;DHT22;1444;49.166;7.312;2022-07-17T07:34:27;24.10;61.00
2873;DHT22;1444;49.166;7.312;2022-07-17T07:36:53;24.30;62.10
2873;DHT22;1444;49.166;7.312;2022-07-17T07:39:21;24.80;59.70
2873;DHT22;1444;49.166;7.312;2022-07-17T07:41:48;24.70;60.30
2873;DHT22;1444;49.166;7.312;2022-07-17T07:44:15;25.00;60.10
2873;DHT22;1444;49.166;7.312;2022-07-17T07:46:44;25.20;59.70
2873;DHT22;1444;49.166;7.312;2022-07-17T07:49:11;25.40;58.10
2873;DHT22;1444;49.166;7.312;2022-07-17T07:51:37;25.50;58.00
2873;DHT22;1444;49.166;7.312;2022-07-17T07:54:04;25.50;58.00
2873;DHT22;1444;49.166;7.312;2022-07-17T07:56:32;25.60;57.30
2873;DHT22;1444;49.166;7.312;2022-07-17T07:58:59;25.70;57.90
2873;DHT22;1444;49.166;7.312;2022-07-17T08:01:26;26.00;57.30
2873;DHT22;1444;49.166;7.312;2022-07-17T08:03:52;26.10;57.10
2873;DHT22;1444;49.166;7.312;2022-07-17T08:06:19;26.20;56.90
2873;DHT22;1444;49.166;7.312;2022-07-17T08:08:46;26.30;56.10
2873;DHT22;1444;49.166;7.312;2022-07-17T08:11:13;26.30;55.90
2873;DHT22;1444;49.166;7.312;2022-07-17T08:13:41;26.40;57.00
2873;DHT22;1444;49.166;7.312;2022-07-17T08:16:08;26.60;56.70
2873;DHT22;1444;49.166;7.312;2022-07-17T08:18:35;26.70;56.60
2873;DHT22;1444;49.166;7.312;2022-07-17T08:21:02;26.90;57.10
2873;DHT22;1444;49.166;7.312;2022-07-17T08:23:29;27.00;55.80
2873;DHT22;1444;49.166;7.312;2022-07-17T08:25:55;27.10;55.70
2873;DHT22;1444;49.166;7.312;2022-07-17T08:28:22;27.30;54.70
2873;DHT22;1444;49.166;7.312;2022-07-17T08:30:50;27.50;55.80
2873;DHT22;1444;49.166;7.312;2022-07-17T08:33:17;27.60;55.10
2873;DHT22;1444;49.166;7.312;2022-07-17T08:35:44;27.60;55.20
2873;DHT22;1444;49.166;7.312;2022-07-17T08:38:11;27.70;54.20
2873;DHT22;1444;49.166;7.312;2022-07-17T08:40:38;27.70;54.50
2873;DHT22;1444;49.166;7.312;2022-07-17T08:43:07;27.80;54.40
2873;DHT22;1444;49.166;7.312;2022-07-17T08:45:35;28.00;54.90
2873;DHT22;1444;49.166;7.312;2022-07-17T08:48:03;28.10;53.60
2873;DHT22;1444;49.166;7.312;2022-07-17T08:50:32;28.20;54.30
2873;DHT22;1444;49.166;7.312;2022-07-17T08:53:00;28.40;53.20
2873;DHT22;1444;49.166;7.312;2022-07-17T08:55:27;28.50;53.90
2873;DHT22;1444;49.166;7.312;2022-07-17T08:57:54;28.50;53.70
2873;DHT22;1444;49.166;7.312;2022-07-17T09:00:23;28.60;53.60
2873;DHT22;1444;49.166;7.312;2022-07-17T09:02:54;28.80;54.00
2873;DHT22;1444;49.166;7.312;2022-07-17T09:05:24;28.90;52.70
2873;DHT22;1444;49.166;7.312;2022-07-17T09:07:51;28.60;52.40
2873;DHT22;1444;49.166;7.312;2022-07-17T09:10:18;28.70;53.70
2873;DHT22;1444;49.166;7.312;2022-07-17T09:12:45;28.80;53.30
2873;DHT22;1444;49.166;7.312;2022-07-17T09:15:16;29.10;52.40
2873;DHT22;1444;49.166;7.312;2022-07-17T09:17:50;29.10;53.40
2873;DHT22;1444;49.166;7.312;2022-07-17T09:20:17;29.30;53.90
2873;DHT22;1444;49.166;7.312;2022-07-17T09:22:55;29.50;53.60
2873;DHT22;1444;49.166;7.312;2022-07-17T09:25:32;29.60;52.70
2873;DHT22;1444;49.166;7.312;2022-07-17T09:28:00;29.70;52.60
2873;DHT22;1444;49.166;7.312;2022-07-17T09:30:28;30.00;52.00
2873;DHT22;1444;49.166;7.312;2022-07-17T09:32:55;30.10;51.90
2873;DHT22;1444;49.166;7.312;2022-07-17T09:35:22;30.30;50.90
2873;DHT22;1444;49.166;7.312;2022-07-17T09:37:53;30.30;51.30
2873;DHT22;1444;49.166;7.312;2022-07-17T09:40:21;30.40;50.40
2873;DHT22;1444;49.166;7.312;2022-07-17T09:43:06;30.50;51.80
2873;DHT22;1444;49.166;7.312;2022-07-17T09:45:34;30.60;50.60
2873;DHT22;1444;49.166;7.312;2022-07-17T09:48:01;30.80;50.10
2873;DHT22;1444;49.166;7.312;2022-07-17T09:50:29;30.80;50.10
2873;DHT22;1444;49.166;7.312;2022-07-17T09:52:57;30.90;49.90
2873;DHT22;1444;49.166;7.312;2022-07-17T09:55:28;30.70;48.80
2873;DHT22;1444;49.166;7.312;2022-07-17T09:57:56;30.70;49.20
2873;DHT22;1444;49.166;7.312;2022-07-17T10:00:25;30.80;49.90
2873;DHT22;1444;49.166;7.312;2022-07-17T10:02:52;31.00;49.80
2873;DHT22;1444;49.166;7.312;2022-07-17T10:05:19;31.10;50.00
2873;DHT22;1444;49.166;7.312;2022-07-17T10:07:47;31.10;50.50
2873;DHT22;1444;49.166;7.312;2022-07-17T10:10:17;31.20;48.90
2873;DHT22;1444;49.166;7.312;2022-07-17T10:12:48;31.10;48.80
2873;DHT22;1444;49.166;7.312;2022-07-17T10:15:16;31.10;49.40
2873;DHT22;1444;49.166;7.312;2022-07-17T10:17:45;31.20;49.20
2873;DHT22;1444;49.166;7.312;2022-07-17T10:20:12;31.40;50.20
2873;DHT22;1444;49.166;7.312;2022-07-17T10:22:44;31.60;47.40
2873;DHT22;1444;49.166;7.312;2022-07-17T10:25:13;31.70;48.80
2873;DHT22;1444;49.166;7.312;2022-07-17T10:27:48;31.80;47.10
2873;DHT22;1444;49.166;7.312;2022-07-17T10:30:20;31.90;47.60
2873;DHT22;1444;49.166;7.312;2022-07-17T10:32:54;31.90;48.10
2873;DHT22;1444;49.166;7.312;2022-07-17T10:35:21;32.00;47.20
2873;DHT22;1444;49.166;7.312;2022-07-17T10:37:47;32.10;48.40
2873;DHT22;1444;49.166;7.312;2022-07-17T10:40:17;32.10;47.20
2873;DHT22;1444;49.166;7.312;2022-07-17T10:43:00;32.10;47.80
2873;DHT22;1444;49.166;7.312;2022-07-17T10:45:30;32.10;46.60
2873;DHT22;1444;49.166;7.312;2022-07-17T10:48:03;32.30;47.50
2873;DHT22;1444;49.166;7.312;2022-07-17T10:50:32;32.20;45.00
2873;DHT22;1444;49.166;7.312;2022-07-17T10:53:06;32.40;46.60
2873;DHT22;1444;49.166;7.312;2022-07-17T10:55:34;32.30;44.90
2873;DHT22;1444;49.166;7.312;2022-07-17T10:58:03;32.30;46.40
2873;DHT22;1444;49.166;7.312;2022-07-17T11:00:30;32.40;47.40
2873;DHT22;1444;49.166;7.312;2022-07-17T11:02:57;32.50;44.70
2873;DHT22;1444;49.166;7.312;2022-07-17T11:05:34;32.50;45.60
2873;DHT22;1444;49.166;7.312;2022-07-17T11:08:00;32.50;44.70
2873;DHT22;1444;49.166;7.312;2022-07-17T11:10:28;32.50;45.60
2873;DHT22;1444;49.166;7.312;2022-07-17T11:13:09;32.30;45.10
2873;DHT22;1444;49.166;7.312;2022-07-17T11:15:41;31.60;42.40
2873;DHT22;1444;49.166;7.312;2022-07-17T11:18:13;31.60;44.50
2873;DHT22;1444;49.166;7.312;2022-07-17T11:20:52;32.00;44.70
2873;DHT22;1444;49.166;7.312;2022-07-17T11:23:19;32.00;45.00
2873;DHT22;1444;49.166;7.312;2022-07-17T11:25:55;32.10;42.50
2873;DHT22;1444;49.166;7.312;2022-07-17T11:28:32;32.10;43.40
2873;DHT22;1444;49.166;7.312;2022-07-17T11:31:00;32.10;43.00
2873;DHT22;1444;49.166;7.312;2022-07-17T11:33:27;32.20;40.90
2873;DHT22;1444;49.166;7.312;2022-07-17T11:35:54;32.20;42.10
2873;DHT22;1444;49.166;7.312;2022-07-17T11:38:28;32.30;45.30
2873;DHT22;1444;49.166;7.312;2022-07-17T11:40:55;32.30;45.10
2873;DHT22;1444;49.166;7.312;2022-07-17T11:43:22;32.60;44.40
2873;DHT22;1444;49.166;7.312;2022-07-17T11:45:50;32.70;44.70
2873;DHT22;1444;49.166;7.312;2022-07-17T11:48:17;32.80;45.00
2873;DHT22;1444;49.166;7.312;2022-07-17T11:50:55;32.40;41.50
2873;DHT22;1444;49.166;7.312;2022-07-17T11:53:31;32.20;41.90
2873;DHT22;1444;49.166;7.312;2022-07-17T11:55:59;32.30;46.40
2873;DHT22;1444;49.166;7.312;2022-07-17T11:58:26;32.50;45.80
2873;DHT22;1444;49.166;7.312;2022-07-17T12:01:02;32.70;44.00
2873;DHT22;1444;49.166;7.312;2022-07-17T12:03:29;32.90;44.20
2873;DHT22;1444;49.166;7.312;2022-07-17T12:05:56;33.00;42.60
2873;DHT22;1444;49.166;7.312;2022-07-17T12:08:23;33.10;44.40
2873;DHT22;1444;49.166;7.312;2022-07-17T12:11:00;33.00;43.10
2873;DHT22;1444;49.166;7.312;2022-07-17T12:13:40;33.10;43.70
2873;DHT22;1444;49.166;7.312;2022-07-17T12:16:26;33.20;44.10
2873;DHT22;1444;49.166;7.312;2022-07-17T12:19:02;33.40;45.00
2873;DHT22;1444;49.166;7.312;2022-07-17T12:21:31;33.50;42.60
2873;DHT22;1444;49.166;7.312;2022-07-17T12:24:01;33.50;43.10
2873;DHT22;1444;49.166;7.312;2022-07-17T12:26:28;33.50;42.30
2873;DHT22;1444;49.166;7.312;2022-07-17T12:28:55;33.00;40.40
2873;DHT22;1444;49.166;7.312;2022-07-17T12:31:23;32.80;44.00
2873;DHT22;1444;49.166;7.312;2022-07-17T12:33:52;32.80;44.00
2873;DHT22;1444;49.166;7.312;2022-07-17T12:36:20;33.00;44.20
2873;DHT22;1444;49.166;7.312;2022-07-17T12:38:47;33.20;42.50
2873;DHT22;1444;49.166;7.312;2022-07-17T12:41:14;33.40;43.80
2873;DHT22;1444;49.166;7.312;2022-07-17T12:46:08;33.90;41.90
2873;DHT22;1444;49.166;7.312;2022-07-17T12:48:36;33.80;40.90
2873;DHT22;1444;49.166;7.312;2022-07-17T12:51:06;33.80;41.70
2873;DHT22;1444;49.166;7.312;2022-07-17T12:53:33;33.90;41.90
2873;DHT22;1444;49.166;7.312;2022-07-17T12:56:00;33.90;42.00
2873;DHT22;1444;49.166;7.312;2022-07-17T12:58:27;33.60;40.50
2873;DHT22;1444;49.166;7.312;2022-07-17T13:00:54;33.60;41.40
2873;DHT22;1444;49.166;7.312;2022-07-17T13:03:21;33.60;41.00
2873;DHT22;1444;49.166;7.312;2022-07-17T13:08:16;33.80;41.00
2873;DHT22;1444;49.166;7.312;2022-07-17T13:10:43;33.80;42.10
2873;DHT22;1444;49.166;7.312;2022-07-17T13:13:10;33.80;40.50
2873;DHT22;1444;49.166;7.312;2022-07-17T13:15:36;33.70;39.30
2873;DHT22;1444;49.166;7.312;2022-07-17T13:18:03;33.70;40.30
2873;DHT22;1444;49.166;7.312;2022-07-17T13:20:30;33.70;41.70
2873;DHT22;1444;49.166;7.312;2022-07-17T13:22:58;33.80;41.50
2873;DHT22;1444;49.166;7.312;2022-07-17T13:25:25;33.90;40.40
2873;DHT22;1444;49.166;7.312;2022-07-17T13:27:51;34.00;40.30
2873;DHT22;1444;49.166;7.312;2022-07-17T13:30:18;34.00;39.30
2873;DHT22;1444;49.166;7.312;2022-07-17T13:32:45;34.00;40.20
2873;DHT22;1444;49.166;7.312;2022-07-17T13:35:12;34.00;39.30
2873;DHT22;1444;49.166;7.312;2022-07-17T13:37:38;34.20;40.40
2873;DHT22;1444;49.166;7.312;2022-07-17T13:40:08;34.20;41.10
2873;DHT22;1444;49.166;7.312;2022-07-17T13:42:35;34.30;40.30
2873;DHT22;1444;49.166;7.312;2022-07-17T13:45:02;34.50;40.90
2873;DHT22;1444;49.166;7.312;2022-07-17T13:47:29;34.30;39.40
2873;DHT22;1444;49.166;7.312;2022-07-17T13:49:56;34.20;39.90
2873;DHT22;1444;49.166;7.312;2022-07-17T13:52:23;34.00;39.60
2873;DHT22;1444;49.166;7.312;2022-07-17T13:54:49;34.00;40.00
2873;DHT22;1444;49.166;7.312;2022-07-17T13:57:17;34.00;40.60
2873;DHT22;1444;49.166;7.312;2022-07-17T13:59:44;33.90;41.00
2873;DHT22;1444;49.166;7.312;2022-07-17T14:02:11;33.90;41.60
2873;DHT22;1444;49.166;7.312;2022-07-17T14:04:38;34.00;40.50
2873;DHT22;1444;49.166;7.312;2022-07-17T14:07:05;34.00;39.80
2873;DHT22;1444;49.166;7.312;2022-07-17T14:09:33;34.10;40.20
2873;DHT22;1444;49.166;7.312;2022-07-17T14:12:00;34.20;39.60
2873;DHT22;1444;49.166;7.312;2022-07-17T14:14:28;34.20;39.20
2873;DHT22;1444;49.166;7.312;2022-07-17T14:16:55;34.20;39.70
2873;DHT22;1444;49.166;7.312;2022-07-17T14:19:22;34.20;38.80
2873;DHT22;1444;49.166;7.312;2022-07-17T14:21:49;34.20;40.80
2873;DHT22;1444;49.166;7.312;2022-07-17T14:24:16;34.20;39.20
2873;DHT22;1444;49.166;7.312;2022-07-17T14:26:43;34.10;39.20
2873;DHT22;1444;49.166;7.312;2022-07-17T14:29:13;34.10;39.10
2873;DHT22;1444;49.166;7.312;2022-07-17T14:31:41;34.10;39.90
2873;DHT22;1444;49.166;7.312;2022-07-17T14:34:08;34.00;38.00
2873;DHT22;1444;49.166;7.312;2022-07-17T14:36:35;34.10;39.60
2873;DHT22;1444;49.166;7.312;2022-07-17T14:39:03;34.10;39.60
2873;DHT22;1444;49.166;7.312;2022-07-17T14:41:30;34.20;40.00
2873;DHT22;1444;49.166;7.312;2022-07-17T14:43:57;34.20;40.50
2873;DHT22;1444;49.166;7.312;2022-07-17T14:46:24;34.00;38.90
2873;DHT22;1444;49.166;7.312;2022-07-17T14:48:52;33.90;39.40
2873;DHT22;1444;49.166;7.312;2022-07-17T14:51:19;34.00;39.80
2873;DHT22;1444;49.166;7.312;2022-07-17T14:53:46;34.10;40.20
2873;DHT22;1444;49.166;7.312;2022-07-17T14:56:13;34.20;38.80
2873;DHT22;1444;49.166;7.312;2022-07-17T14:58:40;33.90;38.90
2873;DHT22;1444;49.166;7.312;2022-07-17T15:01:07;34.00;38.90
2873;DHT22;1444;49.166;7.312;2022-07-17T15:03:34;34.00;39.00
2873;DHT22;1444;49.166;7.312;2022-07-17T15:06:02;34.20;38.90
2873;DHT22;1444;49.166;7.312;2022-07-17T15:08:29;34.20;39.70
2873;DHT22;1444;49.166;7.312;2022-07-17T15:10:56;34.40;40.00
2873;DHT22;1444;49.166;7.312;2022-07-17T15:13:23;34.50;38.80
2873;DHT22;1444;49.166;7.312;2022-07-17T15:15:49;34.40;38.00
2873;DHT22;1444;49.166;7.312;2022-07-17T15:18:16;34.40;37.60
2873;DHT22;1444;49.166;7.312;2022-07-17T15:20:43;34.40;38.80
2873;DHT22;1444;49.166;7.312;2022-07-17T15:23:11;34.50;39.00
2873;DHT22;1444;49.166;7.312;2022-07-17T15:25:38;34.50;38.50
2873;DHT22;1444;49.166;7.312;2022-07-17T15:28:05;34.40;38.20
2873;DHT22;1444;49.166;7.312;2022-07-17T15:30:31;34.40;38.20
2873;DHT22;1444;49.166;7.312;2022-07-17T15:32:59;34.40;37.90
2873;DHT22;1444;49.166;7.312;2022-07-17T15:35:25;34.40;38.70
2873;DHT22;1444;49.166;7.312;2022-07-17T15:37:52;34.30;38.40
2873;DHT22;1444;49.166;7.312;2022-07-17T15:40:21;34.50;38.20
2873;DHT22;1444;49.166;7.312;2022-07-17T15:42:49;34.10;37.40
2873;DHT22;1444;49.166;7.312;2022-07-17T15:45:16;34.00;38.10
2873;DHT22;1444;49.166;7.312;2022-07-17T15:47:45;34.10;38.40
2873;DHT22;1444;49.166;7.312;2022-07-17T15:50:15;34.00;39.20
2873;DHT22;1444;49.166;7.312;2022-07-17T15:52:42;34.00;38.50
2873;DHT22;1444;49.166;7.312;2022-07-17T15:55:09;33.80;37.90
2873;DHT22;1444;49.166;7.312;2022-07-17T15:57:37;34.00;39.50
2873;DHT22;1444;49.166;7.312;2022-07-17T16:00:06;34.00;40.00
2873;DHT22;1444;49.166;7.312;2022-07-17T16:02:33;34.00;39.10
2873;DHT22;1444;49.166;7.312;2022-07-17T16:05:00;34.20;39.10
2873;DHT22;1444;49.166;7.312;2022-07-17T16:07:28;34.20;38.50
2873;DHT22;1444;49.166;7.312;2022-07-17T16:09:54;34.00;38.40